sensor_id;sensor_type;location;lat;lon;timestamp;P1;P2;P0
32503;PMS5003;18953;45.930;13.640;2023-04-25T00:01:36;10;8;
32503;PMS5003;18953;45.930;13.640;2023-04-25T00:06:53;13;11;
32503;PMS5003;18953;45.930;13.640;2023-04-25T00:12:09;10;10;
32503;PMS5003;18953;45.930;13.640;2023-04-25T00:17:25;12;10;
32503;PMS5003;18953;45.930;13.640;2023-04-25T00:22:42;8;8;
32503;PMS5003;18953;45.930;13.640;2023-04-25T00:27:58;11;9;
32503;PMS5003;18953;45.930;13.640;2023-04-25T00:33:14;7;6;
32503;PMS5003;18953;45.930;13.640;2023-04-25T00:38:31;7;7;
32503;PMS5003;18953;45.930;13.640;2023-04-25T00:43:47;10;9;
32503;PMS5003;18953;45.930;13.640;2023-04-25T00:49:03;11;10;
32503;PMS5003;18953;45.930;13.640;2023-04-25T00:54:20;6;6;
32503;PMS5003;18953;45.930;13.640;2023-04-25T00:59:36;7;7;
32503;PMS5003;18953;45.930;13.640;2023-04-25T01:04:53;7;6;
32503;PMS5003;18953;45.930;13.640;2023-04-25T01:10:09;5;5;
32503;PMS5003;18953;45.930;13.640;2023-04-25T01:15:25;5;5;
32503;PMS5003;18953;45.930;13.640;2023-04-25T01:20:42;7;6;
32503;PMS5003;18953;45.930;13.640;2023-04-25T01:25:58;9;7;
32503;PMS5003;18953;45.930;13.640;2023-04-25T01:31:15;9;7;
32503;PMS5003;18953;45.930;13.640;2023-04-25T01:36:31;7;7;
32503;PMS5003;18953;45.930;13.640;2023-04-25T01:41:47;6;6;
32503;PMS5003;18953;45.930;13.640;2023-04-25T01:47:04;6;6;
32503;PMS5003;18953;45.930;13.640;2023-04-25T01:52:20;3;3;
32503;PMS5003;18953;45.930;13.640;2023-04-25T01:57:36;3;3;
32503;PMS5003;18953;45.930;13.640;2023-04-25T02:02:53;7;6;
32503;PMS5003;18953;45.930;13.640;2023-04-25T02:08:09;11;7;
32503;PMS5003;18953;45.930;13.640;2023-04-25T02:13:25;7;6;
32503;PMS5003;18953;45.930;13.640;2023-04-25T02:18:42;9;7;
32503;PMS5003;18953;45.930;13.640;2023-04-25T02:23:58;6;6;
32503;PMS5003;18953;45.930;13.640;2023-04-25T02:29:15;6;5;
32503;PMS5003;18953;45.930;13.640;2023-04-25T02:34:31;4;4;
32503;PMS5003;18953;45.930;13.640;2023-04-25T02:39:47;4;4;
32503;PMS5003;18953;45.930;13.640;2023-04-25T02:45:04;5;5;
32503;PMS5003;18953;45.930;13.640;2023-04-25T02:50:20;4;4;
32503;PMS5003;18953;45.930;13.640;2023-04-25T02:55:36;4;4;
32503;PMS5003;18953;45.930;13.640;2023-04-25T03:00:53;2;2;
32503;PMS5003;18953;45.930;13.640;2023-04-25T03:06:09;1;1;
32503;PMS5003;18953;45.930;13.640;2023-04-25T03:11:26;2;2;
32503;PMS5003;18953;45.930;13.640;2023-04-25T03:16:42;4;4;
32503;PMS5003;18953;45.930;13.640;2023-04-25T03:21:58;7;5;
32503;PMS5003;18953;45.930;13.640;2023-04-25T03:27:15;7;7;
32503;PMS5003;18953;45.930;13.640;2023-04-25T03:32:31;6;6;
32503;PMS5003;18953;45.930;13.640;2023-04-25T03:37:48;7;6;
32503;PMS5003;18953;45.930;13.640;2023-04-25T03:43:04;10;8;
32503;PMS5003;18953;45.930;13.640;2023-04-25T03:48:20;8;6;
32503;PMS5003;18953;45.930;13.640;2023-04-25T03:53:37;7;6;
32503;PMS5003;18953;45.930;13.640;2023-04-25T03:58:53;6;5;
32503;PMS5003;18953;45.930;13.640;2023-04-25T04:04:09;5;5;
32503;PMS5003;18953;45.930;13.640;2023-04-25T04:09:26;5;5;
32503;PMS5003;18953;45.930;13.640;2023-04-25T04:14:42;7;7;
32503;PMS5003;18953;45.930;13.640;2023-04-25T04:19:59;6;6;
32503;PMS5003;18953;45.930;13.640;2023-04-25T04:25:15;7;7;
32503;PMS5003;18953;45.930;13.640;2023-04-25T04:30:31;11;10;
32503;PMS5003;18953;45.930;13.640;2023-04-25T04:35:48;11;11;
32503;PMS5003;18953;45.930;13.640;2023-04-25T04:41:04;16;15;
32503;PMS5003;18953;45.930;13.640;2023-04-25T04:46:20;32;29;
32503;PMS5003;18953;45.930;13.640;2023-04-25T04:51:37;8;6;
32503;PMS5003;18953;45.930;13.640;2023-04-25T04:56:53;12;10;
32503;PMS5003;18953;45.930;13.640;2023-04-25T05:02:10;7;7;
32503;PMS5003;18953;45.930;13.640;2023-04-25T05:07:27;11;11;
32503;PMS5003;18953;45.930;13.640;2023-04-25T05:12:43;16;14;
32503;PMS5003;18953;45.930;13.640;2023-04-25T05:18:00;32;31;
32503;PMS5003;18953;45.930;13.640;2023-04-25T05:23:16;12;12;
32503;PMS5003;18953;45.930;13.640;2023-04-25T05:28:33;14;12;
32503;PMS5003;18953;45.930;13.640;2023-04-25T05:33:49;16;13;
32503;PMS5003;18953;45.930;13.640;2023-04-25T05:40:25;12;11;
32503;PMS5003;18953;45.930;13.640;2023-04-25T05:45:42;8;8;
32503;PMS5003;18953;45.930;13.640;2023-04-25T05:50:58;7;7;
32503;PMS5003;18953;45.930;13.640;2023-04-25T05:56:15;12;10;
32503;PMS5003;18953;45.930;13.640;2023-04-25T06:01:31;2;2;
32503;PMS5003;18953;45.930;13.640;2023-04-25T06:06:47;4;4;
32503;PMS5003;18953;45.930;13.640;2023-04-25T06:12:04;4;3;
32503;PMS5003;18953;45.930;13.640;2023-04-25T06:17:20;3;2;
32503;PMS5003;18953;45.930;13.640;2023-04-25T06:22:36;5;5;
32503;PMS5003;18953;45.930;13.640;2023-04-25T06:27:53;3;3;
32503;PMS5003;18953;45.930;13.640;2023-04-25T06:33:10;3;3;
32503;PMS5003;18953;45.930;13.640;2023-04-25T06:38:26;3;3;
32503;PMS5003;18953;45.930;13.640;2023-04-25T06:43:43;3;3;
32503;PMS5003;18953;45.930;13.640;2023-04-25T06:48:59;13;9;
32503;PMS5003;18953;45.930;13.640;2023-04-25T06:54:15;2;2;
32503;PMS5003;18953;45.930;13.640;2023-04-25T06:59:32;2;1;
32503;PMS5003;18953;45.930;13.640;2023-04-25T07:04:48;1;1;
32503;PMS5003;18953;45.930;13.640;2023-04-25T07:10:04;2;2;
32503;PMS5003;18953;45.930;13.640;2023-04-25T07:15:21;5;5;
32503;PMS5003;18953;45.930;13.640;2023-04-25T07:20:37;1;1;
32503;PMS5003;18953;45.930;13.640;2023-04-25T07:25:53;2;2;
32503;PMS5003;18953;45.930;13.640;2023-04-25T07:31:10;3;3;
32503;PMS5003;18953;45.930;13.640;2023-04-25T07:36:27;2;2;
32503;PMS5003;18953;45.930;13.640;2023-04-25T07:41:43;6;5;
32503;PMS5003;18953;45.930;13.640;2023-04-25T07:46:59;4;4;
32503;PMS5003;18953;45.930;13.640;2023-04-25T07:52:16;4;4;
32503;PMS5003;18953;45.930;13.640;2023-04-25T07:57:32;4;3;
32503;PMS5003;18953;45.930;13.640;2023-04-25T08:02:48;5;3;
32503;PMS5003;18953;45.930;13.640;2023-04-25T08:08:05;3;3;
32503;PMS5003;18953;45.930;13.640;2023-04-25T08:13:21;2;2;
32503;PMS5003;18953;45.930;13.640;2023-04-25T08:18:38;4;3;
32503;PMS5003;18953;45.930;13.640;2023-04-25T08:23:54;3;3;
32503;PMS5003;18953;45.930;13.640;2023-04-25T08:29:10;4;3;
32503;PMS5003;18953;45.930;13.640;2023-04-25T08:34:27;5;4;
32503;PMS5003;18953;45.930;13.640;2023-04-25T08:39:43;4;4;
32503;PMS5003;18953;45.930;13.640;2023-04-25T08:45:00;3;3;
32503;PMS5003;18953;45.930;13.640;2023-04-25T08:50:16;2;2;
32503;PMS5003;18953;45.930;13.640;2023-04-25T08:55:32;3;3;
32503;PMS5003;18953;45.930;13.640;2023-04-25T09:00:49;6;5;
32503;PMS5003;18953;45.930;13.640;2023-04-25T09:06:05;3;3;
32503;PMS5003;18953;45.930;13.640;2023-04-25T09:11:21;5;5;
32503;PMS5003;18953;45.930;13.640;2023-04-25T09:16:50;3;3;
32503;PMS5003;18953;45.930;13.640;2023-04-25T09:21:54;3;3;
32503;PMS5003;18953;45.930;13.640;2023-04-25T09:27:11;3;3;
32503;PMS5003;18953;45.930;13.640;2023-04-25T09:32:26;3;3;
32503;PMS5003;18953;45.930;13.640;2023-04-25T09:37:43;3;3;
32503;PMS5003;18953;45.930;13.640;2023-04-25T09:42:59;3;3;
32503;PMS5003;18953;45.930;13.640;2023-04-25T09:48:17;3;3;
32503;PMS5003;18953;45.930;13.640;2023-04-25T09:53:32;3;2;
32503;PMS5003;18953;45.930;13.640;2023-04-25T09:58:49;2;2;
32503;PMS5003;18953;45.930;13.640;2023-04-25T10:04:05;4;3;
32503;PMS5003;18953;45.930;13.640;2023-04-25T10:09:21;3;3;
32503;PMS5003;18953;45.930;13.640;2023-04-25T10:14:38;4;3;
32503;PMS5003;18953;45.930;13.640;2023-04-25T10:19:54;3;3;
32503;PMS5003;18953;45.930;13.640;2023-04-25T10:25:10;3;3;
32503;PMS5003;18953;45.930;13.640;2023-04-25T10:30:27;3;3;
32503;PMS5003;18953;45.930;13.640;2023-04-25T10:35:43;2;2;
32503;PMS5003;18953;45.930;13.640;2023-04-25T10:41:03;4;3;
32503;PMS5003;18953;45.930;13.640;2023-04-25T10:46:16;3;3;
32503;PMS5003;18953;45.930;13.640;2023-04-25T10:51:33;1;1;
32503;PMS5003;18953;45.930;13.640;2023-04-25T10:56:49;2;2;
32503;PMS5003;18953;45.930;13.640;2023-04-25T11:02:11;2;2;
32503;PMS5003;18953;45.930;13.640;2023-04-25T11:07:23;3;2;
32503;PMS5003;18953;45.930;13.640;2023-04-25T11:12:38;3;2;
32503;PMS5003;18953;45.930;13.640;2023-04-25T11:17:54;2;2;
32503;PMS5003;18953;45.930;13.640;2023-04-25T11:23:10;2;2;
32503;PMS5003;18953;45.930;13.640;2023-04-25T11:28:27;2;2;
32503;PMS5003;18953;45.930;13.640;2023-04-25T11:33:43;3;3;
32503;PMS5003;18953;45.930;13.640;2023-04-25T11:38:59;4;3;
32503;PMS5003;18953;45.930;13.640;2023-04-25T11:44:16;4;3;
32503;PMS5003;18953;45.930;13.640;2023-04-25T11:49:32;2;2;
32503;PMS5003;18953;45.930;13.640;2023-04-25T11:54:48;2;2;
32503;PMS5003;18953;45.930;13.640;2023-04-25T12:00:06;4;3;
32503;PMS5003;18953;45.930;13.640;2023-04-25T12:05:23;3;3;
32503;PMS5003;18953;45.930;13.640;2023-04-25T12:10:38;3;3;
32503;PMS5003;18953;45.930;13.640;2023-04-25T12:15:54;4;3;
32503;PMS5003;18953;45.930;13.640;2023-04-25T12:21:10;3;3;
32503;PMS5003;18953;45.930;13.640;2023-04-25T12:26:27;4;3;
32503;PMS5003;18953;45.930;13.640;2023-04-25T12:31:43;5;3;
32503;PMS5003;18953;45.930;13.640;2023-04-25T12:36:59;3;3;
32503;PMS5003;18953;45.930;13.640;2023-04-25T12:42:16;3;3;
32503;PMS5003;18953;45.930;13.640;2023-04-25T12:47:32;4;4;
32503;PMS5003;18953;45.930;13.640;2023-04-25T12:52:48;4;4;
32503;PMS5003;18953;45.930;13.640;2023-04-25T12:58:05;4;4;
32503;PMS5003;18953;45.930;13.640;2023-04-25T13:03:21;4;4;
32503;PMS5003;18953;45.930;13.640;2023-04-25T13:08:38;4;4;
32503;PMS5003;18953;45.930;13.640;2023-04-25T13:13:55;6;6;
32503;PMS5003;18953;45.930;13.640;2023-04-25T13:19:10;21;20;
32503;PMS5003;18953;45.930;13.640;2023-04-25T13:24:26;5;5;
32503;PMS5003;18953;45.930;13.640;2023-04-25T13:29:43;5;5;
32503;PMS5003;18953;45.930;13.640;2023-04-25T13:34:59;5;5;
32503;PMS5003;18953;45.930;13.640;2023-04-25T13:40:15;3;3;
32503;PMS5003;18953;45.930;13.640;2023-04-25T13:45:32;5;3;
32503;PMS5003;18953;45.930;13.640;2023-04-25T13:50:48;6;5;
32503;PMS5003;18953;45.930;13.640;2023-04-25T13:56:05;4;4;
32503;PMS5003;18953;45.930;13.640;2023-04-25T14:01:21;4;4;
32503;PMS5003;18953;45.930;13.640;2023-04-25T14:06:37;4;4;
32503;PMS5003;18953;45.930;13.640;2023-04-25T14:11:54;3;3;
32503;PMS5003;18953;45.930;13.640;2023-04-25T14:17:11;3;3;
32503;PMS5003;18953;45.930;13.640;2023-04-25T14:22:26;5;4;
32503;PMS5003;18953;45.930;13.640;2023-04-25T14:27:43;4;3;
32503;PMS5003;18953;45.930;13.640;2023-04-25T14:32:59;4;4;
32503;PMS5003;18953;45.930;13.640;2023-04-25T14:38:15;5;4;
32503;PMS5003;18953;45.930;13.640;2023-04-25T14:43:32;4;3;
32503;PMS5003;18953;45.930;13.640;2023-04-25T14:48:48;2;2;
32503;PMS5003;18953;45.930;13.640;2023-04-25T14:54:04;4;3;
32503;PMS5003;18953;45.930;13.640;2023-04-25T14:59:21;3;2;
32503;PMS5003;18953;45.930;13.640;2023-04-25T15:04:37;3;3;
32503;PMS5003;18953;45.930;13.640;2023-04-25T15:09:53;1;1;
32503;PMS5003;18953;45.930;13.640;2023-04-25T15:15:10;3;2;
32503;PMS5003;18953;45.930;13.640;2023-04-25T15:20:26;2;2;
32503;PMS5003;18953;45.930;13.640;2023-04-25T15:25:42;2;2;
32503;PMS5003;18953;45.930;13.640;2023-04-25T15:30:59;2;2;
32503;PMS5003;18953;45.930;13.640;2023-04-25T15:36:15;2;2;
32503;PMS5003;18953;45.930;13.640;2023-04-25T15:41:31;1;1;
32503;PMS5003;18953;45.930;13.640;2023-04-25T15:46:48;2;2;
32503;PMS5003;18953;45.930;13.640;2023-04-25T15:52:04;1;1;
32503;PMS5003;18953;45.930;13.640;2023-04-25T15:57:21;2;2;
32503;PMS5003;18953;45.930;13.640;2023-04-25T16:02:37;3;3;
32503;PMS5003;18953;45.930;13.640;2023-04-25T16:07:53;1;1;
32503;PMS5003;18953;45.930;13.640;2023-04-25T16:13:10;2;2;
32503;PMS5003;18953;45.930;13.640;2023-04-25T16:18:26;2;2;
32503;PMS5003;18953;45.930;13.640;2023-04-25T16:23:42;2;2;
32503;PMS5003;18953;45.930;13.640;2023-04-25T16:28:59;4;4;
32503;PMS5003;18953;45.930;13.640;2023-04-25T16:34:15;8;8;
32503;PMS5003;18953;45.930;13.640;2023-04-25T16:39:31;4;4;
32503;PMS5003;18953;45.930;13.640;2023-04-25T16:44:48;2;2;
32503;PMS5003;18953;45.930;13.640;2023-04-25T16:50:04;2;2;
32503;PMS5003;18953;45.930;13.640;2023-04-25T16:55:20;2;2;
32503;PMS5003;18953;45.930;13.640;2023-04-25T17:00:37;2;2;
32503;PMS5003;18953;45.930;13.640;2023-04-25T17:05:54;1;1;
32503;PMS5003;18953;45.930;13.640;2023-04-25T17:11:09;3;2;
32503;PMS5003;18953;45.930;13.640;2023-04-25T17:16:32;2;2;
32503;PMS5003;18953;45.930;13.640;2023-04-25T17:21:43;3;3;
32503;PMS5003;18953;45.930;13.640;2023-04-25T17:26:59;3;3;
32503;PMS5003;18953;45.930;13.640;2023-04-25T17:32:16;3;3;
32503;PMS5003;18953;45.930;13.640;2023-04-25T17:37:32;2;2;
32503;PMS5003;18953;45.930;13.640;2023-04-25T17:42:48;3;3;
32503;PMS5003;18953;45.930;13.640;2023-04-25T17:48:05;3;3;
32503;PMS5003;18953;45.930;13.640;2023-04-25T17:53:21;3;3;
32503;PMS5003;18953;45.930;13.640;2023-04-25T17:58:37;4;4;
32503;PMS5003;18953;45.930;13.640;2023-04-25T18:03:54;7;6;
32503;PMS5003;18953;45.930;13.640;2023-04-25T18:09:10;23;18;
32503;PMS5003;18953;45.930;13.640;2023-04-25T18:14:26;26;24;
32503;PMS5003;18953;45.930;13.640;2023-04-25T18:19:43;31;28;
32503;PMS5003;18953;45.930;13.640;2023-04-25T18:24:59;20;18;
32503;PMS5003;18953;45.930;13.640;2023-04-25T18:30:15;13;12;
32503;PMS5003;18953;45.930;13.640;2023-04-25T18:35:32;29;25;
32503;PMS5003;18953;45.930;13.640;2023-04-25T18:40:48;25;24;
32503;PMS5003;18953;45.930;13.640;2023-04-25T18:46:05;15;15;
32503;PMS5003;18953;45.930;13.640;2023-04-25T18:51:22;21;21;
32503;PMS5003;18953;45.930;13.640;2023-04-25T18:56:38;21;19;
32503;PMS5003;18953;45.930;13.640;2023-04-25T19:01:54;18;18;
32503;PMS5003;18953;45.930;13.640;2023-04-25T19:07:10;42;38;
32503;PMS5003;18953;45.930;13.640;2023-04-25T19:12:27;22;20;
32503;PMS5003;18953;45.930;13.640;2023-04-25T19:17:43;20;18;
32503;PMS5003;18953;45.930;13.640;2023-04-25T19:23:00;47;38;
32503;PMS5003;18953;45.930;13.640;2023-04-25T19:28:17;27;26;
32503;PMS5003;18953;45.930;13.640;2023-04-25T19:33:33;24;23;
32503;PMS5003;18953;45.930;13.640;2023-04-25T19:38:49;33;30;
32503;PMS5003;18953;45.930;13.640;2023-04-25T19:44:07;23;20;
32503;PMS5003;18953;45.930;13.640;2023-04-25T19:49:22;22;17;
32503;PMS5003;18953;45.930;13.640;2023-04-25T19:54:39;12;11;
32503;PMS5003;18953;45.930;13.640;2023-04-25T19:59:56;17;16;
32503;PMS5003;18953;45.930;13.640;2023-04-25T20:05:13;11;11;
32503;PMS5003;18953;45.930;13.640;2023-04-25T20:10:29;17;15;
32503;PMS5003;18953;45.930;13.640;2023-04-25T20:15:45;15;15;
32503;PMS5003;18953;45.930;13.640;2023-04-25T20:21:01;13;11;
32503;PMS5003;18953;45.930;13.640;2023-04-25T20:26:18;19;18;
32503;PMS5003;18953;45.930;13.640;2023-04-25T20:31:34;26;23;
32503;PMS5003;18953;45.930;13.640;2023-04-25T20:36:50;24;22;
32503;PMS5003;18953;45.930;13.640;2023-04-25T20:42:07;22;20;
32503;PMS5003;18953;45.930;13.640;2023-04-25T20:47:23;23;20;
32503;PMS5003;18953;45.930;13.640;2023-04-25T20:52:40;15;12;
32503;PMS5003;18953;45.930;13.640;2023-04-25T20:57:56;14;13;
32503;PMS5003;18953;45.930;13.640;2023-04-25T21:03:12;8;8;
32503;PMS5003;18953;45.930;13.640;2023-04-25T21:08:29;13;10;
32503;PMS5003;18953;45.930;13.640;2023-04-25T21:13:45;14;13;
32503;PMS5003;18953;45.930;13.640;2023-04-25T21:19:01;10;10;
32503;PMS5003;18953;45.930;13.640;2023-04-25T21:24:18;14;13;
32503;PMS5003;18953;45.930;13.640;2023-04-25T21:29:34;10;8;
32503;PMS5003;18953;45.930;13.640;2023-04-25T21:34:51;10;8;
32503;PMS5003;18953;45.930;13.640;2023-04-25T21:40:07;8;8;
32503;PMS5003;18953;45.930;13.640;2023-04-25T21:45:23;8;8;
32503;PMS5003;18953;45.930;13.640;2023-04-25T21:50:40;8;8;
32503;PMS5003;18953;45.930;13.640;2023-04-25T21:55:56;9;9;
32503;PMS5003;18953;45.930;13.640;2023-04-25T22:01:12;10;10;
32503;PMS5003;18953;45.930;13.640;2023-04-25T22:06:29;15;14;
32503;PMS5003;18953;45.930;13.640;2023-04-25T22:11:45;12;11;
32503;PMS5003;18953;45.930;13.640;2023-04-25T22:17:02;12;11;
32503;PMS5003;18953;45.930;13.640;2023-04-25T22:22:18;11;11;
32503;PMS5003;18953;45.930;13.640;2023-04-25T22:27:34;14;13;
32503;PMS5003;18953;45.930;13.640;2023-04-25T22:32:51;9;9;
32503;PMS5003;18953;45.930;13.640;2023-04-25T22:38:07;12;10;
32503;PMS5003;18953;45.930;13.640;2023-04-25T22:43:23;12;9;
32503;PMS5003;18953;45.930;13.640;2023-04-25T22:48:40;9;8;
32503;PMS5003;18953;45.930;13.640;2023-04-25T22:53:56;8;8;
32503;PMS5003;18953;45.930;13.640;2023-04-25T22:59:13;8;8;
32503;PMS5003;18953;45.930;13.640;2023-04-25T23:04:29;8;8;
32503;PMS5003;18953;45.930;13.640;2023-04-25T23:09:45;11;10;
32503;PMS5003;18953;45.930;13.640;2023-04-25T23:15:02;8;7;
32503;PMS5003;18953;45.930;13.640;2023-04-25T23:20:18;8;8;
32503;PMS5003;18953;45.930;13.640;2023-04-25T23:25:35;7;7;
32503;PMS5003;18953;45.930;13.640;2023-04-25T23:30:51;7;7;
32503;PMS5003;18953;45.930;13.640;2023-04-25T23:36:11;9;9;
32503;PMS5003;18953;45.930;13.640;2023-04-25T23:41:24;7;7;
32503;PMS5003;18953;45.930;13.640;2023-04-25T23:46:40;9;7;
32503;PMS5003;18953;45.930;13.640;2023-04-25T23:51:57;10;8;
32503;PMS5003;18953;45.930;13.640;2023-04-25T23:57:13;10;10;
